createdAt,value
2022-12-29T07:41:10.349Z,97186.53
2022-12-29T07:43:38.968Z,97171.22
2022-12-29T07:46:54.639Z,97175.53
2022-12-29T07:49:15.411Z,97183.69
2022-12-29T07:51:43.874Z,97189.28
2022-12-29T07:54:13.493Z,97187.63
2022-12-29T07:56:43.393Z,97192.59
2022-12-29T07:59:13.016Z,97204.09
2022-12-29T08:01:41.745Z,97214.03
2022-12-29T08:04:10.444Z,97198.03
2022-12-29T08:06:39.156Z,97202.81
2022-12-29T08:09:16.556Z,97207.75
2022-12-29T08:11:49.659Z,97210.38
2022-12-29T08:14:18.129Z,97212.91
2022-12-29T08:16:46.400Z,97212.34
2022-12-29T08:19:15.489Z,97219.59
2022-12-29T08:21:43.919Z,97224.88
2022-12-29T08:24:12.729Z,97223.22
2022-12-29T08:26:41.267Z,97234.28
2022-12-29T08:29:11.105Z,97212.56
2022-12-29T08:31:39.785Z,97214.81
2022-12-29T08:34:08.354Z,97217.38
2022-12-29T08:36:36.887Z,97211.97
2022-12-29T08:39:05.651Z,97217.66
2022-12-29T08:41:34.153Z,97220.13
2022-12-29T08:44:02.764Z,97224.78
2022-12-29T08:46:32.578Z,97231.75
2022-12-29T08:49:00.892Z,97224.59
2022-12-29T08:51:29.303Z,97228.44
2022-12-29T08:53:57.822Z,97238.84
2022-12-29T08:56:26.305Z,97227.41
2022-12-29T08:58:58.107Z,97229.78
2022-12-29T09:01:27.245Z,97222.03
2022-12-29T09:04:15.051Z,97225.69
2022-12-29T09:06:45.374Z,97229.91
2022-12-29T09:09:14.335Z,97231.78
2022-12-29T09:11:43.356Z,97224.88
2022-12-29T09:14:11.896Z,97224.75
2022-12-29T09:16:55.150Z,97229.19
2022-12-29T09:19:25.039Z,97229.09
2022-12-29T09:21:53.595Z,97231.59
2022-12-29T09:24:22.102Z,97226.22
2022-12-29T09:26:50.660Z,97234.19
2022-12-29T09:29:19.216Z,97223.75
2022-12-29T09:31:47.752Z,97232.66
2022-12-29T09:34:16.540Z,97235.69
2022-12-29T09:36:46.399Z,97245.94
2022-12-29T09:39:14.777Z,97239.31
2022-12-29T09:41:51.685Z,97247.28
2022-12-29T09:44:27.220Z,97243.59
2022-12-29T09:46:58.387Z,97246.56
2022-12-29T09:49:31.888Z,97248.56
2022-12-29T09:52:08.267Z,97241.19
2022-12-29T09:54:54.960Z,97244.72
2022-12-29T09:57:29.429Z,97245.44
2022-12-29T10:00:04.131Z,97247.81
2022-12-29T10:02:45.049Z,97233.75
2022-12-29T10:05:27.438Z,97226.72
2022-12-29T10:08:15.554Z,97237.88
2022-12-29T10:10:56.067Z,97230.59
2022-12-29T10:13:41.820Z,97220.66
2022-12-29T10:16:16.135Z,97234.75
2022-12-29T10:18:57.512Z,97232.06
2022-12-29T10:21:38.911Z,97225.44
2022-12-29T10:24:12.312Z,97222.31
2022-12-29T10:26:43.621Z,97222.00
2022-12-29T10:29:18.292Z,97218.50
2022-12-29T10:31:51.301Z,97224.16
2022-12-29T10:34:24.135Z,97223.03
2022-12-29T10:36:59.272Z,97219.72
2022-12-29T10:39:35.036Z,97227.47
2022-12-29T10:42:12.671Z,97219.91
2022-12-29T10:44:41.833Z,97218.56
2022-12-29T10:47:17.524Z,97224.13
2022-12-29T10:49:48.634Z,97221.09
2022-12-29T10:52:19.506Z,97216.16
2022-12-29T10:54:53.412Z,97217.00
2022-12-29T10:57:28.356Z,97220.50
2022-12-29T10:59:57.009Z,97215.13
2022-12-29T11:02:45.371Z,97204.19
2022-12-29T11:05:21.012Z,97214.91
2022-12-29T11:07:52.004Z,97202.31
2022-12-29T11:10:32.444Z,97204.47
2022-12-29T11:13:02.474Z,97213.06
2022-12-29T11:15:41.365Z,97212.16
2022-12-29T11:18:21.270Z,97212.88
2022-12-29T11:20:51.486Z,97221.56
2022-12-29T11:23:26.932Z,97217.00
2022-12-29T11:26:17.210Z,97212.56
2022-12-29T11:28:47.607Z,97210.94
2022-12-29T11:31:21.288Z,97214.97
2022-12-29T11:33:49.887Z,97211.75
2022-12-29T11:36:21.641Z,97210.44
2022-12-29T11:38:52.161Z,97209.19
2022-12-29T11:41:29.342Z,97219.41
2022-12-29T11:44:00.490Z,97214.56
2022-12-29T11:46:32.478Z,97217.25
2022-12-29T11:49:01.838Z,97225.94
2022-12-29T11:51:36.394Z,97219.31
2022-12-29T11:54:07.126Z,97215.78
2022-12-29T11:56:42.088Z,97216.03
2022-12-29T11:59:27.043Z,97197.31
2022-12-29T12:01:55.753Z,97216.19
2022-12-29T12:04:28.291Z,97216.19
2022-12-29T12:07:04.135Z,97212.50
2022-12-29T12:09:38.587Z,97219.41
2022-12-29T12:12:17.429Z,97229.00
2022-12-29T12:14:55.360Z,97226.13
2022-12-29T12:17:46.155Z,97221.69
2022-12-29T12:20:22.919Z,97212.03
2022-12-29T12:23:03.543Z,97217.41
2022-12-29T12:25:37.802Z,97212.88
2022-12-29T12:28:17.957Z,97210.50
2022-12-29T12:30:50.947Z,97211.63
2022-12-29T12:33:27.016Z,97202.88
2022-12-29T12:36:00.208Z,97205.34
2022-12-29T12:38:40.139Z,97205.13
2022-12-29T12:41:18.086Z,97205.22
2022-12-29T12:43:53.543Z,97208.75
2022-12-29T12:46:40.776Z,97210.28
2022-12-29T12:49:36.549Z,97204.09
2022-12-29T12:52:13.621Z,97210.75
2022-12-29T12:54:55.448Z,97209.16
2022-12-29T12:57:33.456Z,97205.00
2022-12-29T13:00:10.242Z,97209.25
2022-12-29T13:02:52.344Z,97211.66
2022-12-29T13:05:38.821Z,97220.31
2022-12-29T13:08:30.375Z,97215.47
2022-12-29T13:11:07.909Z,97215.25
2022-12-29T13:13:48.882Z,97204.09
2022-12-29T13:16:30.326Z,97213.50
2022-12-29T13:19:04.649Z,97203.06
2022-12-29T13:21:56.346Z,97217.72
2022-12-29T13:24:35.056Z,97217.94
2022-12-29T13:27:14.217Z,97211.09
2022-12-29T13:29:52.404Z,97209.88
2022-12-29T13:32:34.313Z,97208.41
2022-12-29T13:35:17.141Z,97199.63
2022-12-29T13:37:51.866Z,97205.41
2022-12-29T13:40:25.275Z,97202.19
2022-12-29T13:42:55.006Z,97212.97
2022-12-29T13:45:26.868Z,97218.53
2022-12-29T13:48:02.686Z,97215.22
2022-12-29T13:50:37.097Z,97218.41
2022-12-29T13:53:14.864Z,97216.84
2022-12-29T13:55:51.491Z,97223.97
2022-12-29T13:58:27.342Z,97217.16
2022-12-29T14:01:01.699Z,97226.06
2022-12-29T14:03:46.574Z,97216.97
2022-12-29T14:06:21.322Z,97205.41
2022-12-29T14:08:50.775Z,97207.06
2022-12-29T14:11:22.462Z,97209.75
2022-12-29T14:13:51.038Z,97206.16
2022-12-29T14:16:31.876Z,97197.56
2022-12-29T14:19:13.927Z,97200.25
2022-12-29T14:21:43.358Z,97198.28
2022-12-29T14:24:43.331Z,97194.16
2022-12-29T14:27:53.198Z,97188.47
2022-12-29T14:30:49.538Z,97186.50
2022-12-29T14:33:18.766Z,97180.63
2022-12-29T14:35:53.235Z,97185.59
2022-12-29T14:38:30.770Z,97183.50
2022-12-29T14:41:21.065Z,97181.03
2022-12-29T14:44:13.199Z,97187.25
2022-12-29T14:46:48.194Z,97190.50
2022-12-29T14:49:20.403Z,97187.94
2022-12-29T14:51:53.115Z,97183.59
2022-12-29T14:54:52.912Z,97188.78
2022-12-29T14:57:26.812Z,97191.25
2022-12-29T14:59:59.122Z,97196.91
2022-12-29T15:02:34.904Z,97193.56
2022-12-29T15:05:05.116Z,97187.72
2022-12-29T15:07:35.553Z,97196.91
2022-12-29T15:10:10.563Z,97198.81
2022-12-29T15:12:43.497Z,97196.38
2022-12-29T15:15:24.302Z,97200.22
2022-12-29T15:17:53.005Z,97197.56
2022-12-29T15:20:28.152Z,97191.97
2022-12-29T15:23:00.376Z,97202.06
2022-12-29T15:25:28.861Z,97199.28
2022-12-29T15:28:02.615Z,97199.97
2022-12-29T15:30:31.367Z,97197.31
2022-12-29T15:32:59.959Z,97202.63
2022-12-29T15:35:33.125Z,97208.81
2022-12-29T15:38:14.681Z,97212.50
2022-12-29T15:40:46.157Z,97198.41
2022-12-29T17:00:39.820Z,97264.06
2022-12-29T17:03:08.622Z,97260.84
2022-12-29T17:05:37.235Z,97271.88
2022-12-29T17:08:23.747Z,97268.66
2022-12-29T17:11:10.793Z,97271.38
2022-12-29T17:13:39.829Z,97270.22
2022-12-29T17:16:13.012Z,97273.47
2022-12-29T17:18:41.612Z,97281.31
2022-12-29T17:21:10.153Z,97277.84
2022-12-29T17:23:38.667Z,97282.81
2022-12-29T17:26:10.155Z,97275.84
2022-12-29T17:28:38.683Z,97273.28
2022-12-29T17:31:11.394Z,97274.03
2022-12-29T17:33:42.716Z,97282.81
2022-12-29T17:36:12.830Z,97283.75
2022-12-29T17:38:41.365Z,97277.19
2022-12-29T17:41:15.143Z,97289.13
2022-12-29T17:43:43.854Z,97293.09
2022-12-29T17:46:13.676Z,97290.63
2022-12-29T17:48:42.722Z,97280.47
2022-12-29T17:51:13.308Z,97284.97
2022-12-29T17:53:41.853Z,97287.81
2022-12-29T17:56:10.753Z,97297.81
2022-12-29T18:01:16.255Z,97300.84
2022-12-29T18:03:44.899Z,97306.06
2022-12-29T18:06:13.640Z,97304.25
2022-12-29T18:08:43.907Z,97295.81
2022-12-29T18:11:26.921Z,97306.06
2022-12-29T18:13:55.873Z,97304.34
2022-12-29T18:16:25.981Z,97298.53
2022-12-29T18:18:54.642Z,97295.22
2022-12-29T18:21:25.449Z,97299.22
2022-12-29T18:23:53.984Z,97305.41
2022-12-29T18:26:27.936Z,97300.72
2022-12-29T18:28:57.460Z,97302.03
2022-12-29T18:31:29.574Z,97298.28
2022-12-29T18:33:59.682Z,97294.81
2022-12-29T18:36:29.013Z,97296.53
2022-12-29T18:38:57.550Z,97288.53
2022-12-29T18:41:29.523Z,97303.38
2022-12-29T18:43:58.752Z,97307.81
2022-12-29T18:46:28.745Z,97307.75
2022-12-29T18:48:57.617Z,97311.31
2022-12-29T18:51:27.089Z,97315.69
2022-12-29T18:53:55.545Z,97323.47
2022-12-29T18:56:24.677Z,97325.44
2022-12-29T18:58:53.621Z,97334.91
2022-12-29T19:01:25.389Z,97340.19
2022-12-29T19:03:55.901Z,97341.69
2022-12-29T19:06:24.445Z,97357.69
2022-12-29T19:08:53.103Z,97351.78
2022-12-29T19:11:21.689Z,97352.53
2022-12-29T19:13:50.347Z,97362.66
2022-12-29T19:16:21.436Z,97372.72
2022-12-29T19:19:07.716Z,97354.84
2022-12-29T19:21:38.875Z,97370.75
2022-12-29T19:24:08.074Z,97364.63
2022-12-29T19:26:39.016Z,97353.50
2022-12-29T19:29:12.303Z,97359.72
2022-12-29T19:31:40.813Z,97350.28
2022-12-29T19:34:09.274Z,97362.28
2022-12-29T19:36:39.120Z,97359.03
2022-12-29T19:39:07.690Z,97359.03
2022-12-29T19:41:36.460Z,97354.75
2022-12-29T19:44:05.453Z,97355.72
2022-12-29T19:46:33.927Z,97353.16
2022-12-29T19:49:02.559Z,97357.44
2022-12-29T19:51:31.063Z,97360.16
2022-12-29T19:54:00.897Z,97364.56
2022-12-29T19:56:29.733Z,97359.72
2022-12-29T19:58:58.501Z,97355.66
2022-12-29T20:01:27.726Z,97359.13
2022-12-29T20:03:56.707Z,97365.34
2022-12-29T20:06:25.185Z,97374.91
2022-12-29T20:08:55.511Z,97378.31
2022-12-29T20:11:26.043Z,97381.81
2022-12-29T20:13:54.648Z,97379.53
2022-12-29T20:16:24.818Z,97387.00
2022-12-29T20:18:55.541Z,97385.34
2022-12-29T20:21:25.793Z,97386.09
2022-12-29T20:23:55.686Z,97377.88
2022-12-29T20:26:28.115Z,97386.41
2022-12-29T20:28:57.813Z,97385.66
2022-12-29T20:31:29.167Z,97386.88
2022-12-29T20:33:58.116Z,97395.56
2022-12-29T20:36:29.030Z,97387.09
2022-12-29T20:38:59.833Z,97389.75
2022-12-29T20:41:31.014Z,97394.34
2022-12-29T20:44:00.553Z,97399.69
2022-12-29T20:46:35.200Z,97403.25
2022-12-29T20:49:07.963Z,97405.19
2022-12-29T20:52:04.555Z,97409.47
2022-12-29T20:54:25.710Z,97406.91
2022-12-29T20:56:55.578Z,97414.84
2022-12-29T20:59:28.641Z,97409.84
2022-12-29T21:01:58.053Z,97421.25
2022-12-29T21:04:26.853Z,97426.38
2022-12-29T21:06:55.691Z,97420.41
2022-12-29T21:09:24.166Z,97422.22
2022-12-29T21:11:56.652Z,97431.72
2022-12-29T21:14:25.061Z,97424.72
2022-12-29T21:19:15.038Z,97440.97
2022-12-29T21:21:43.523Z,97446.78
2022-12-29T21:24:11.931Z,97452.19
2022-12-29T21:26:40.540Z,97457.44
2022-12-29T21:29:09.015Z,97454.09
2022-12-29T21:31:38.211Z,97461.50
2022-12-29T21:34:07.731Z,97467.59
2022-12-29T21:36:37.728Z,97460.25
2022-12-29T21:39:06.199Z,97476.75
2022-12-29T21:41:35.047Z,97479.25
2022-12-29T21:44:21.219Z,97487.81
2022-12-29T21:46:49.751Z,97491.56
2022-12-29T21:49:18.202Z,97496.06
2022-12-29T21:51:54.696Z,97509.78
2022-12-29T21:54:43.129Z,97503.91
2022-12-29T21:57:33.330Z,97502.94
2022-12-29T22:00:19.408Z,97509.09
2022-12-29T22:03:05.357Z,97510.31
2022-12-29T22:05:51.301Z,97506.91
2022-12-29T22:08:38.689Z,97511.50
2022-12-29T22:11:25.316Z,97503.75
2022-12-29T22:13:55.923Z,97497.66
2022-12-29T22:16:25.983Z,97511.34
2022-12-29T22:18:55.214Z,97507.19
2022-12-29T22:21:23.849Z,97503.59
2022-12-29T22:23:53.738Z,97512.03
2022-12-29T22:26:22.200Z,97512.97
2022-12-29T22:28:52.213Z,97510.50
2022-12-29T22:31:27.444Z,97508.94
2022-12-29T22:33:57.474Z,97508.28
2022-12-29T22:36:26.732Z,97500.59
2022-12-29T22:38:56.895Z,97492.28
2022-12-29T22:41:25.633Z,97495.66
2022-12-29T22:43:54.032Z,97493.66
2022-12-29T22:46:22.820Z,97491.28
2022-12-29T22:48:51.332Z,97489.66
2022-12-29T22:51:19.888Z,97495.81
2022-12-29T22:53:50.184Z,97493.06
2022-12-29T22:56:20.220Z,97493.09
2022-12-29T22:58:49.109Z,97502.72
2022-12-29T23:01:21.933Z,97497.59
2022-12-29T23:03:50.848Z,97506.69
2022-12-29T23:06:19.396Z,97508.53
2022-12-29T23:08:47.952Z,97517.16
2022-12-29T23:11:16.792Z,97520.59
2022-12-29T23:13:46.857Z,97525.78
2022-12-29T23:16:15.852Z,97541.50
2022-12-29T23:18:45.973Z,97534.81
2022-12-29T23:21:14.821Z,97531.31
2022-12-29T23:23:56.033Z,97527.50
2022-12-29T23:26:27.446Z,97526.56
2022-12-29T23:29:00.461Z,97527.34
2022-12-29T23:31:30.426Z,97522.53
2022-12-29T23:33:59.784Z,97523.31
2022-12-29T23:36:28.966Z,97538.03
2022-12-29T23:38:58.351Z,97544.94
2022-12-29T23:41:27.183Z,97555.00
2022-12-29T23:43:57.228Z,97542.38
2022-12-29T23:46:28.175Z,97547.56
2022-12-29T23:48:57.095Z,97547.47
2022-12-29T23:51:26.283Z,97545.66
2022-12-29T23:53:54.830Z,97546.81
2022-12-29T23:56:24.635Z,97557.75
2022-12-29T23:58:53.622Z,97568.16
